Flight Track Log - Related Links

Times and Time Zones

All times are in EST time to prevent confusion due to time zone crossing. See the AFL150 flight status page for this flight to view local times or setup timezone preferences in your user account.

Time Position Orientation Groundspeed Altitude Reporting Facility
EST Latitude Longitude Course Direction KTS MPH feet Rate Location/Type
Sun 07:06:00 AM 56.0919 37.1970 313° West  Level FlightAware Approximate
Sun 07:07:00 AM 56.1686 37.0505 313° West  Level FlightAware Approximate
Sun 07:08:00 AM 56.2451 36.9034 313° West  Level FlightAware Approximate
Sun 07:09:00 AM 56.3215 36.7557 313° West  Level FlightAware Approximate
Sun 07:10:00 AM 56.3977 36.6074 313° West  Level FlightAware Approximate
Sun 07:11:00 AM 56.4737 36.4586 313° West  Level FlightAware Approximate
Sun 07:12:00 AM 56.5496 36.3091 313° West  Level FlightAware Approximate
Sun 07:13:00 AM 56.6252 36.1590 313° West  Level FlightAware Approximate
Sun 07:14:00 AM 56.7007 36.0084 312° West  Level FlightAware Approximate
Sun 07:15:00 AM 56.7760 35.8571 312° West  Level FlightAware Approximate
Sun 07:16:00 AM 56.8511 35.7052 312° West  Level FlightAware Approximate
Sun 07:17:00 AM 56.9260 35.5527 312° West  Level FlightAware Approximate
Sun 07:18:00 AM 57.0008 35.3997 312° West  Level FlightAware Approximate
Sun 07:19:00 AM 57.0753 35.2459 312° West  Level FlightAware Approximate
Sun 07:20:00 AM 57.1497 35.0916 312° West  Level FlightAware Approximate
Sun 07:21:00 AM 57.2239 34.9367 312° West  Level FlightAware Approximate
Sun 07:22:00 AM 57.2978 34.7811 311° West  Level FlightAware Approximate
Sun 07:23:00 AM 57.3613 34.6101 309° West  Level Estimated
Sun 07:24:00 AM 57.4324 34.4493 309° West  Level FlightAware Approximate
Sun 07:25:00 AM 57.5033 34.2880 309° West  Level FlightAware Approximate
Sun 07:26:00 AM 57.5617 34.1540 309° West  Level FlightAware Approximate
Sun 07:27:00 AM 57.6200 34.0195 309° West  Level FlightAware Approximate
Sun 07:28:00 AM 57.6782 33.8847 309° West  Level FlightAware Approximate
Sun 07:29:00 AM 57.7363 33.7494 309° West  Level FlightAware Approximate
Sun 07:30:00 AM 57.7942 33.6137 309° West  Level FlightAware Approximate
Sun 07:31:00 AM 57.8519 33.4775 309° West  Level FlightAware Approximate
Sun 07:32:00 AM 57.9095 33.3409 308° West  Level FlightAware Approximate
Sun 07:33:00 AM 57.9669 33.2039 308° West  Level FlightAware Approximate
Sun 07:34:00 AM 58.0243 33.0664 308° West  Level FlightAware Approximate
Sun 07:35:00 AM 58.0814 32.9285 308° West  Level FlightAware Approximate
Sun 07:36:00 AM 58.1384 32.7901 308° West  Level FlightAware Approximate
Sun 07:37:00 AM 58.1953 32.6513 308° West  Level FlightAware Approximate
Sun 07:38:00 AM 58.2520 32.5121 308° West  Level FlightAware Approximate
Sun 07:39:00 AM 58.3086 32.3724 308° West  Level FlightAware Approximate
Sun 07:40:00 AM 58.3649 32.2322 308° West  Level FlightAware Approximate
Sun 07:41:00 AM 58.4212 32.0916 307° West  Level FlightAware Approximate
Sun 07:42:00 AM 58.4773 31.9506 307° West  Level FlightAware Approximate
Sun 07:43:00 AM 58.5332 31.8091 307° West  Level FlightAware Approximate
Sun 07:44:00 AM 58.5890 31.6672 307° West  Level FlightAware Approximate
Sun 07:45:00 AM 58.6446 31.5248 307° West  Level FlightAware Approximate
Sun 07:46:00 AM 58.7001 31.3819 307° West  Level FlightAware Approximate
Sun 07:47:00 AM 58.7554 31.2386 307° West  Level FlightAware Approximate
Sun 07:48:00 AM 58.8106 31.0949 307° West  Level FlightAware Approximate
Sun 07:49:00 AM 58.8656 30.9507 306° West  Level FlightAware Approximate
Sun 07:50:00 AM 58.9204 30.8060 306° West  Level FlightAware Approximate
Sun 07:51:00 AM 58.9751 30.6609 306° West  Level FlightAware Approximate
Sun 07:52:00 AM 59.0296 30.5153 306° West  Level FlightAware Approximate
Sun 07:53:00 AM 59.0839 30.3692 306° West  Level FlightAware Approximate
Sun 07:54:00 AM 59.1381 30.2227 306° West  Level FlightAware Approximate
Sun 07:55:00 AM 59.1921 30.0757 306° West  Level FlightAware Approximate
Sun 07:56:00 AM 59.2459 29.9283 306° West  Level FlightAware Approximate
Sun 07:57:00 AM 59.2996 29.7804 305° West  Level FlightAware Approximate
Sun 07:58:00 AM 59.3531 29.6320 305° West  Level FlightAware Approximate
Sun 07:59:00 AM 59.4065 29.4832 305° West  Level FlightAware Approximate
Sun 08:00:00 AM 59.4596 29.3338 305° West  Level FlightAware Approximate
Sun 08:01:00 AM 59.5126 29.1841 305° West  Level FlightAware Approximate
Sun 08:02:00 AM 59.5655 29.0338 305° West  Level FlightAware Approximate
Sun 08:03:00 AM 59.6181 28.8831 305° West  Level FlightAware Approximate
Sun 08:04:00 AM 59.6706 28.7319 305° West  Level FlightAware Approximate
Sun 08:05:00 AM 59.7229 28.5802 304° West  Level FlightAware Approximate
Sun 08:06:00 AM 59.7750 28.4281 304° West  Level FlightAware Approximate
Sun 08:07:00 AM 59.8270 28.2755 304° West  Level FlightAware Approximate
Sun 08:08:00 AM 59.8788 28.1224 304° West  Level FlightAware Approximate
Sun 08:09:00 AM 59.9304 27.9688 304° West  Level FlightAware Approximate
Sun 08:10:00 AM 59.9818 27.8147 304° West  Level FlightAware Approximate
Sun 08:11:00 AM 60.0330 27.6602 304° West  Level FlightAware Approximate
Sun 08:12:00 AM 60.0841 27.5052 303° West  Level FlightAware Approximate
Sun 08:13:00 AM 60.1350 27.3497 303° West  Level FlightAware Approximate
Sun 08:14:00 AM 60.1856 27.1937 303° West  Level FlightAware Approximate
Sun 08:15:00 AM 60.2362 27.0373 303° West  Level FlightAware Approximate
Sun 08:16:00 AM 60.2865 26.8804 303° West  Level FlightAware Approximate
Sun 08:17:00 AM 60.3366 26.7229 303° West  Level FlightAware Approximate
Sun 08:18:00 AM 60.3866 26.5650 303° West  Level FlightAware Approximate
Sun 08:19:00 AM 60.4364 26.4067 303° West  Level FlightAware Approximate
Sun 08:20:00 AM 60.4859 26.2478 302° West  Level FlightAware Approximate
Sun 08:21:00 AM 60.5353 26.0884 302° West  Level FlightAware Approximate
Sun 08:22:00 AM 60.5845 25.9286 302° West  Level FlightAware Approximate
Sun 08:23:00 AM 60.6335 25.7683 302° West  Level FlightAware Approximate
Sun 08:24:00 AM 60.6823 25.6075 302° West  Level FlightAware Approximate
Sun 08:25:00 AM 60.7310 25.4462 302° West  Level FlightAware Approximate
Sun 08:26:00 AM 60.7794 25.2844 302° West  Level FlightAware Approximate
Sun 08:27:00 AM 60.8276 25.1221 301° West  Level FlightAware Approximate
Sun 08:28:00 AM 60.8757 24.9593 301° West  Level FlightAware Approximate
Sun 08:29:00 AM 60.9235 24.7961 301° West  Level FlightAware Approximate
Sun 08:30:00 AM 60.9711 24.6323 301° West  Level FlightAware Approximate
Sun 08:31:00 AM 61.0186 24.4681 301° West  Level FlightAware Approximate
Sun 08:32:00 AM 61.0658 24.3033 301° West  Level FlightAware Approximate
Sun 08:33:00 AM 61.1129 24.1381 301° West  Level FlightAware Approximate
Sun 08:34:00 AM 61.1597 23.9724 300° West  Level FlightAware Approximate
Sun 08:35:00 AM 61.2063 23.8062 300° West  Level FlightAware Approximate
Sun 08:36:00 AM 61.2528 23.6395 300° West  Level FlightAware Approximate
Sun 08:37:00 AM 61.2990 23.4723 300° West  Level FlightAware Approximate
Sun 08:38:00 AM 61.3450 23.3046 300° West  Level FlightAware Approximate
Sun 08:39:00 AM 61.3908 23.1365 300° West  Level FlightAware Approximate
Sun 08:40:00 AM 61.4364 22.9678 300° West  Level FlightAware Approximate
Sun 08:41:00 AM 61.4818 22.7987 299° West  Level FlightAware Approximate
Sun 08:42:00 AM 61.5270 22.6290 299° West  Level FlightAware Approximate
Sun 08:43:00 AM 61.5720 22.4589 299° West  Level FlightAware Approximate
Sun 08:44:00 AM 61.6167 22.2882 299° West  Level FlightAware Approximate
Sun 08:45:00 AM 61.6613 22.1171 299° West  Level FlightAware Approximate
Sun 08:46:00 AM 61.7056 21.9455 299° West  Level FlightAware Approximate
Sun 08:47:00 AM 61.7497 21.7734 298° West  Level FlightAware Approximate
Sun 08:48:00 AM 61.7936 21.6008 298° West  Level FlightAware Approximate
Sun 08:49:00 AM 61.8373 21.4277 298° West  Level FlightAware Approximate
Sun 08:50:00 AM 61.8808 21.2541 298° West  Level FlightAware Approximate
Sun 08:51:00 AM 61.9240 21.0800 298° West  Level FlightAware Approximate
Sun 08:52:00 AM 61.9671 20.9054 298° West  Level FlightAware Approximate
Sun 08:53:00 AM 62.0099 20.7303 298° West  Level FlightAware Approximate
Sun 08:54:00 AM 62.0524 20.5548 297° West  Level FlightAware Approximate
Sun 08:55:00 AM 62.0948 20.3787 297° West  Level FlightAware Approximate
Sun 08:56:00 AM 62.1370 20.2022 297° West  Level FlightAware Approximate
Sun 08:57:00 AM 62.1789 20.0252 297° West  Level FlightAware Approximate
Sun 08:58:00 AM 62.2205 19.8476 297° West  Level FlightAware Approximate
Sun 08:59:00 AM 62.2620 19.6696 297° West  Level FlightAware Approximate
Sun 09:00:00 AM 62.3032 19.4911 296° West  Level FlightAware Approximate
Sun 09:01:00 AM 62.3442 19.3121 296° West  Level FlightAware Approximate
Sun 09:02:00 AM 62.3850 19.1327 296° West  Level FlightAware Approximate
Sun 09:03:00 AM 62.4255 18.9527 296° West  Level FlightAware Approximate
Sun 09:04:00 AM 62.4658 18.7722 296° West  Level FlightAware Approximate
Sun 09:05:00 AM 62.5059 18.5913 296° West  Level FlightAware Approximate
Sun 09:06:00 AM 62.5457 18.4099 296° West  Level FlightAware Approximate
Sun 09:07:00 AM 62.5854 18.2280 295° West  Level FlightAware Approximate
Sun 09:08:00 AM 62.6247 18.0456 295° West  Level FlightAware Approximate
Sun 09:09:00 AM 62.6638 17.8627 295° West  Level FlightAware Approximate
Sun 09:10:00 AM 62.7027 17.6793 295° West  Level FlightAware Approximate
Sun 09:11:00 AM 62.7414 17.4955 295° West  Level FlightAware Approximate
Sun 09:12:00 AM 62.7798 17.3112 295° West  Level FlightAware Approximate
Sun 09:13:00 AM 62.8180 17.1264 294° West  Level FlightAware Approximate
Sun 09:14:00 AM 62.8559 16.9411 294° West  Level FlightAware Approximate
Sun 09:15:00 AM 62.8936 16.7553 294° West  Level FlightAware Approximate
Sun 09:16:00 AM 62.9310 16.5691 294° West  Level FlightAware Approximate
Sun 09:17:00 AM 62.9682 16.3824 294° West  Level FlightAware Approximate
Sun 09:18:00 AM 63.0051 16.1952 294° West  Level FlightAware Approximate
Sun 09:19:00 AM 63.0418 16.0076 293° West  Level FlightAware Approximate
Sun 09:20:00 AM 63.0783 15.8194 293° West  Level FlightAware Approximate
Sun 09:21:00 AM 63.1144 15.6308 293° West  Level FlightAware Approximate
Sun 09:22:00 AM 63.1504 15.4418 293° West  Level FlightAware Approximate
Sun 09:23:00 AM 63.1861 15.2522 293° West  Level FlightAware Approximate
Sun 09:24:00 AM 63.2215 15.0622 293° West  Level FlightAware Approximate
Sun 09:25:00 AM 63.2567 14.8718 292° West  Level FlightAware Approximate
Sun 09:26:00 AM 63.2916 14.6808 292° West  Level FlightAware Approximate
Sun 09:27:00 AM 63.3263 14.4895 292° West  Level FlightAware Approximate
Sun 09:28:00 AM 63.3607 14.2976 292° West  Level FlightAware Approximate
Sun 09:29:00 AM 63.3949 14.1053 292° West  Level FlightAware Approximate
Sun 09:30:00 AM 63.4288 13.9125 292° West  Level FlightAware Approximate
Sun 09:31:00 AM 63.4624 13.7193 291° West  Level FlightAware Approximate
Sun 09:32:00 AM 63.4958 13.5256 291° West  Level FlightAware Approximate
Sun 09:33:00 AM 63.5289 13.3315 291° West  Level FlightAware Approximate
Sun 09:34:00 AM 63.5618 13.1369 291° West  Level FlightAware Approximate
Sun 09:35:00 AM 63.5943 12.9419 291° West  Level FlightAware Approximate
Sun 09:36:00 AM 63.6267 12.7465 290° West  Level FlightAware Approximate
Sun 09:37:00 AM 63.6587 12.5506 290° West  Level FlightAware Approximate
Sun 09:38:00 AM 63.6905 12.3542 290° West  Level FlightAware Approximate
Sun 09:39:00 AM 63.7220 12.1574 290° West  Level FlightAware Approximate
Sun 09:40:00 AM 63.7533 11.9602 290° West  Level FlightAware Approximate
Sun 09:41:00 AM 63.7843 11.7625 290° West  Level FlightAware Approximate
Sun 09:42:00 AM 63.8150 11.5644 289° West  Level FlightAware Approximate
Sun 09:43:00 AM 63.8454 11.3659 289° West  Level FlightAware Approximate
Sun 09:44:00 AM 63.8756 11.1670 289° West  Level FlightAware Approximate
Sun 09:45:00 AM 63.9055 10.9676 289° West  Level FlightAware Approximate
Sun 09:46:00 AM 63.9351 10.7678 289° West  Level FlightAware Approximate
Sun 09:47:00 AM 63.9644 10.5676 289° West  Level FlightAware Approximate
Sun 09:48:00 AM 63.9935 10.3669 288° West  Level FlightAware Approximate
Sun 09:49:00 AM 64.0223 10.1659 288° West  Level FlightAware Approximate
Sun 09:50:00 AM 64.0508 9.9644 288° West  Level FlightAware Approximate
Sun 09:51:00 AM 64.0790 9.7625 288° West  Level FlightAware Approximate
Sun 09:52:00 AM 64.1070 9.5602 288° West  Level FlightAware Approximate
Sun 09:53:00 AM 64.1347 9.3575 287° West  Level FlightAware Approximate
Sun 09:54:00 AM 64.1620 9.1544 287° West  Level FlightAware Approximate
Sun 09:55:00 AM 64.1892 8.9509 287° West  Level FlightAware Approximate
Sun 09:56:00 AM 64.2160 8.7471 287° West  Level FlightAware Approximate
Sun 09:57:00 AM 64.2425 8.5428 287° West  Level FlightAware Approximate
Sun 09:58:00 AM 64.2688 8.3381 287° West  Level FlightAware Approximate
Sun 09:59:00 AM 64.2947 8.1330 286° West  Level FlightAware Approximate
Sun 10:00:00 AM 64.3204 7.9276 286° West  Level FlightAware Approximate
Sun 10:01:00 AM 64.3458 7.7218 286° West  Level FlightAware Approximate
Sun 10:02:00 AM 64.3709 7.5156 286° West  Level FlightAware Approximate
Sun 10:03:00 AM 64.3957 7.3090 286° West  Level FlightAware Approximate
Sun 10:04:00 AM 64.4202 7.1020 285° West  Level FlightAware Approximate
Sun 10:05:00 AM 64.4445 6.8947 285° West  Level FlightAware Approximate
Sun 10:06:00 AM 64.4684 6.6870 285° West  Level FlightAware Approximate
Sun 10:07:00 AM 64.4921 6.4790 285° West  Level FlightAware Approximate
Sun 10:08:00 AM 64.5154 6.2706 285° West  Level FlightAware Approximate
Sun 10:09:00 AM 64.5385 6.0618 284° West  Level FlightAware Approximate
Sun 10:10:00 AM 64.5612 5.8527 284° West  Level FlightAware Approximate
Sun 10:11:00 AM 64.5837 5.6432 284° West  Level FlightAware Approximate
Sun 10:12:00 AM 64.6058 5.4335 284° West  Level FlightAware Approximate
Sun 10:13:00 AM 64.6277 5.2233 284° West  Level FlightAware Approximate
Sun 10:14:00 AM 64.6493 5.0128 284° West  Level FlightAware Approximate
Sun 10:15:00 AM 64.6705 4.8020 283° West  Level FlightAware Approximate
Sun 10:16:00 AM 64.6915 4.5909 283° West  Level FlightAware Approximate
Sun 10:17:00 AM 64.7122 4.3794 283° West  Level FlightAware Approximate
Sun 10:18:00 AM 64.7325 4.1676 283° West  Level FlightAware Approximate
Sun 10:19:00 AM 64.7526 3.9555 283° West  Level FlightAware Approximate
Sun 10:20:00 AM 64.7724 3.7431 282° West  Level FlightAware Approximate
Sun 10:21:00 AM 64.7918 3.5304 282° West  Level FlightAware Approximate
Sun 10:22:00 AM 64.8110 3.3174 282° West  Level FlightAware Approximate
Sun 10:23:00 AM 64.8298 3.1040 282° West  Level FlightAware Approximate
Sun 10:24:00 AM 64.8483 2.8904 282° West  Level FlightAware Approximate
Sun 10:25:00 AM 64.8666 2.6765 281° West  Level FlightAware Approximate
Sun 10:26:00 AM 64.8845 2.4623 281° West  Level FlightAware Approximate
Sun 10:27:00 AM 64.9021 2.2478 281° West  Level FlightAware Approximate
Sun 10:28:00 AM 64.9194 2.0331 281° West  Level FlightAware Approximate
Sun 10:29:00 AM 64.9364 1.8180 281° West  Level FlightAware Approximate
Sun 10:30:00 AM 64.9531 1.6027 280° West  Level FlightAware Approximate
Sun 10:31:00 AM 64.9695 1.3871 280° West  Level FlightAware Approximate
Sun 10:32:00 AM 64.9855 1.1713 280° West  Level FlightAware Approximate
Sun 10:33:00 AM 65.0013 0.9552 280° West  Level FlightAware Approximate
Sun 10:34:00 AM 65.0167 0.7388 280° West  Level FlightAware Approximate
Sun 10:35:00 AM 65.0319 0.5222 279° West  Level FlightAware Approximate
Sun 10:36:00 AM 65.0467 0.3054 279° West  Level FlightAware Approximate
Sun 10:37:00 AM 65.0612 0.0883 279° West  Level FlightAware Approximate
Sun 10:38:00 AM 65.0754 -0.1290 279° West  Level FlightAware Approximate
Sun 10:39:00 AM 65.0892 -0.3465 279° West  Level FlightAware Approximate
Sun 10:40:00 AM 65.1028 -0.5643 279° West  Level FlightAware Approximate
Sun 10:41:00 AM 65.1160 -0.7823 278° West  Level FlightAware Approximate
Sun 10:42:00 AM 65.1289 -1.0005 278° West  Level FlightAware Approximate
Sun 10:43:00 AM 65.1415 -1.2189 278° West  Level FlightAware Approximate
Sun 10:44:00 AM 65.1538 -1.4375 278° West  Level FlightAware Approximate
Sun 10:45:00 AM 65.1658 -1.6563 278° West  Level FlightAware Approximate
Sun 10:46:00 AM 65.1774 -1.8753 277° West  Level FlightAware Approximate
Sun 10:47:00 AM 65.1888 -2.0945 277° West  Level FlightAware Approximate
Sun 10:48:00 AM 65.1998 -2.3139 277° West  Level FlightAware Approximate
Sun 10:49:00 AM 65.2105 -2.5334 277° West  Level FlightAware Approximate
Sun 10:50:00 AM 65.2208 -2.7532 277° West  Level FlightAware Approximate
Sun 10:51:00 AM 65.2309 -2.9731 276° West  Level FlightAware Approximate
Sun 10:52:00 AM 65.2406 -3.1932 276° West  Level FlightAware Approximate
Sun 10:53:00 AM 65.2500 -3.4134 276° West  Level FlightAware Approximate
Sun 10:54:00 AM 65.2591 -3.6338 276° West  Level FlightAware Approximate
Sun 10:55:00 AM 65.2679 -3.8543 276° West  Level FlightAware Approximate
Sun 10:56:00 AM 65.2763 -4.0750 275° West  Level FlightAware Approximate
Sun 10:57:00 AM 65.2844 -4.2958 275° West  Level FlightAware Approximate
Sun 10:58:00 AM 65.2922 -4.5168 275° West  Level FlightAware Approximate
Sun 10:59:00 AM 65.2997 -4.7379 275° West  Level FlightAware Approximate
Sun 11:00:00 AM 65.3068 -4.9591 275° West  Level FlightAware Approximate
Sun 11:01:00 AM 65.3136 -5.1804 274° West  Level FlightAware Approximate
Sun 11:02:00 AM 65.3201 -5.4018 274° West  Level FlightAware Approximate
Sun 11:03:00 AM 65.3263 -5.6233 274° West  Level FlightAware Approximate
Sun 11:04:00 AM 65.3321 -5.8450 274° West  Level FlightAware Approximate
Sun 11:05:00 AM 65.3376 -6.0667 274° West  Level FlightAware Approximate
Sun 11:06:00 AM 65.3428 -6.2885 273° West  Level FlightAware Approximate
Sun 11:07:00 AM 65.3477 -6.5104 273° West  Level FlightAware Approximate
Sun 11:08:00 AM 65.3522 -6.7324 273° West  Level FlightAware Approximate
Sun 11:09:00 AM 65.3565 -6.9545 273° West  Level FlightAware Approximate
Sun 11:10:00 AM 65.3604 -7.1766 273° West  Level FlightAware Approximate
Sun 11:11:00 AM 65.3639 -7.3988 272° West  Level FlightAware Approximate
Sun 11:12:00 AM 65.3671 -7.6211 272° West  Level FlightAware Approximate
Sun 11:13:00 AM 65.3701 -7.8434 272° West  Level FlightAware Approximate
Sun 11:14:00 AM 65.3726 -8.0657 272° West  Level FlightAware Approximate
Sun 11:15:00 AM 65.3749 -8.2881 271° West  Level FlightAware Approximate
Sun 11:16:00 AM 65.3768 -8.5105 271° West  Level FlightAware Approximate
Sun 11:17:00 AM 65.3784 -8.7330 271° West  Level FlightAware Approximate
Sun 11:18:00 AM 65.3797 -8.9555 271° West  Level FlightAware Approximate
Sun 11:19:00 AM 65.3806 -9.1780 271° West  Level FlightAware Approximate
Sun 11:20:00 AM 65.3813 -9.4005 270° West  Level FlightAware Approximate
Sun 11:21:00 AM 65.3816 -9.6230 270° West  Level FlightAware Approximate
Sun 11:22:00 AM 65.3815 -9.8455 270° West  Level FlightAware Approximate
Sun 11:23:00 AM 65.3811 -10.0680 270° West  Level FlightAware Approximate
Sun 11:24:00 AM 65.3805 -10.2906 270° West  Level FlightAware Approximate
Sun 11:25:00 AM 65.3794 -10.5130 269° West  Level FlightAware Approximate
Sun 11:26:00 AM 65.3781 -10.7355 269° West  Level FlightAware Approximate
Sun 11:27:00 AM 65.3764 -10.9580 269° West  Level FlightAware Approximate
Sun 11:28:00 AM 65.3744 -11.1804 269° West  Level FlightAware Approximate
Sun 11:29:00 AM 65.3721 -11.4028 269° West  Level FlightAware Approximate
Sun 11:30:00 AM 65.3695 -11.6251 268° West  Level FlightAware Approximate
Sun 11:31:00 AM 65.3574 -11.8456 268° West  Level Estimated
Sun 11:32:00 AM 65.3541 -12.0677 268° West  Level FlightAware Approximate
Sun 11:33:00 AM 65.3504 -12.2898 268° West  Level FlightAware Approximate
Sun 11:34:00 AM 65.3465 -12.5119 268° West  Level FlightAware Approximate
Sun 11:35:00 AM 65.3421 -12.7338 267° West  Level FlightAware Approximate
Sun 11:36:00 AM 65.3375 -12.9557 267° West  Level FlightAware Approximate
Sun 11:37:00 AM 65.3326 -13.1775 267° West  Level FlightAware Approximate
Sun 11:38:00 AM 65.3273 -13.3993 267° West  Level FlightAware Approximate
Sun 11:39:00 AM 65.3217 -13.6209 267° West  Level FlightAware Approximate
Sun 11:40:00 AM 65.3158 -13.8424 266° West  Level FlightAware Approximate
Sun 11:41:00 AM 65.3095 -14.0639 266° West  Level FlightAware Approximate
Sun 11:42:00 AM 65.3030 -14.2852 266° West  Level FlightAware Approximate
Sun 11:43:00 AM 65.2961 -14.5064 266° West  Level FlightAware Approximate
Sun 11:44:00 AM 65.2888 -14.7275 266° West  Level FlightAware Approximate
Sun 11:45:00 AM 65.2813 -14.9485 265° West  Level FlightAware Approximate
Sun 11:46:00 AM 65.2734 -15.1693 265° West  Level FlightAware Approximate
Sun 11:47:00 AM 65.2652 -15.3900 265° West  Level FlightAware Approximate
Sun 11:48:00 AM 65.2567 -15.6106 265° West  Level FlightAware Approximate
Sun 11:49:00 AM 65.2479 -15.8310 265° West  Level FlightAware Approximate
Sun 11:50:00 AM 65.2387 -16.0513 264° West  Level FlightAware Approximate
Sun 11:51:00 AM 65.2292 -16.2714 264° West  Level FlightAware Approximate
Sun 11:52:00 AM 65.2194 -16.4914 264° West  Level FlightAware Approximate
Sun 11:53:00 AM 65.2093 -16.7112 264° West  Level FlightAware Approximate
Sun 11:54:00 AM 65.1989 -16.9308 264° West  Level FlightAware Approximate
Sun 11:55:00 AM 65.1881 -17.1502 263° West  Level FlightAware Approximate
Sun 11:56:00 AM 65.1770 -17.3695 263° West  Level FlightAware Approximate
Sun 11:57:00 AM 65.1656 -17.5886 263° West  Level FlightAware Approximate
Sun 11:58:00 AM 65.1539 -17.8074 263° West  Level FlightAware Approximate
Sun 11:59:00 AM 65.1418 -18.0261 263° West  Level FlightAware Approximate
Sun 12:00:00 PM 65.1295 -18.2446 262° West  Level FlightAware Approximate
Sun 12:01:00 PM 65.1168 -18.4629 262° West  Level FlightAware Approximate
Sun 12:02:00 PM 65.1038 -18.6810 262° West  Level FlightAware Approximate
Sun 12:03:00 PM 65.0905 -18.8988 262° West  Level FlightAware Approximate
Sun 12:04:00 PM 65.0769 -19.1165 262° West  Level FlightAware Approximate
Sun 12:05:00 PM 65.0629 -19.3339 261° West  Level FlightAware Approximate
Sun 12:06:00 PM 65.0487 -19.5511 261° West  Level FlightAware Approximate
Sun 12:07:00 PM 65.0341 -19.7680 261° West  Level FlightAware Approximate
Sun 12:08:00 PM 65.0192 -19.9847 261° West  Level FlightAware Approximate
Sun 12:09:00 PM 65.0040 -20.2012 261° West  Level FlightAware Approximate
Sun 12:10:00 PM 64.9885 -20.4174 260° West  Level FlightAware Approximate
Sun 12:11:00 PM 64.9727 -20.6334 260° West  Level FlightAware Approximate
Sun 12:12:00 PM 64.9565 -20.8491 260° West  Level FlightAware Approximate
Sun 12:13:00 PM 64.9401 -21.0645 260° West  Level FlightAware Approximate
Sun 12:14:00 PM 64.9233 -21.2797 260° West  Level FlightAware Approximate
Sun 12:15:00 PM 64.9062 -21.4946 259° West  Level FlightAware Approximate
Sun 12:16:00 PM 64.8889 -21.7092 259° West  Level FlightAware Approximate
Sun 12:17:00 PM 64.8712 -21.9235 259° West  Level FlightAware Approximate
Sun 12:18:00 PM 64.8532 -22.1376 259° West  Level FlightAware Approximate
Sun 12:19:00 PM 64.8349 -22.3514 259° West  Level FlightAware Approximate
Sun 12:20:00 PM 64.8163 -22.5649 259° West  Level FlightAware Approximate
Sun 12:21:00 PM 64.7974 -22.7780 258° West  Level FlightAware Approximate
Sun 12:22:00 PM 64.7781 -22.9909 258° West  Level FlightAware Approximate
Sun 12:23:00 PM 64.7586 -23.2035 258° West  Level FlightAware Approximate
Sun 12:24:00 PM 64.7388 -23.4158 258° West  Level FlightAware Approximate
Sun 12:25:00 PM 64.7187 -23.6277 258° West  Level FlightAware Approximate
Sun 12:26:00 PM 64.6982 -23.8394 257° West  Level FlightAware Approximate
Sun 12:27:00 PM 64.6775 -24.0507 257° West  Level FlightAware Approximate
Sun 12:28:00 PM 64.6565 -24.2617 257° West  Level FlightAware Approximate
Sun 12:29:00 PM 64.6351 -24.4723 257° West  Level FlightAware Approximate
Sun 12:30:00 PM 64.6135 -24.6827 257° West  Level FlightAware Approximate
Sun 12:31:00 PM 64.5916 -24.8927 256° West  Level FlightAware Approximate
Sun 12:32:00 PM 64.5693 -25.1023 256° West  Level FlightAware Approximate
Sun 12:33:00 PM 64.5468 -25.3116 256° West  Level FlightAware Approximate
Sun 12:34:00 PM 64.5240 -25.5206 256° West  Level FlightAware Approximate
Sun 12:35:00 PM 64.5009 -25.7292 256° West  Level FlightAware Approximate
Sun 12:36:00 PM 64.4774 -25.9374 255° West  Level FlightAware Approximate
Sun 12:37:00 PM 64.4537 -26.1453 255° West  Level FlightAware Approximate
Sun 12:38:00 PM 64.4297 -26.3528 255° West  Level FlightAware Approximate
Sun 12:39:00 PM 64.4054 -26.5600 255° West  Level FlightAware Approximate
Sun 12:40:00 PM 64.3809 -26.7668 255° West  Level FlightAware Approximate
Sun 12:41:00 PM 64.3560 -26.9732 255° West  Level FlightAware Approximate
Sun 12:42:00 PM 64.3308 -27.1793 254° West  Level FlightAware Approximate
Sun 12:43:00 PM 64.3054 -27.3850 254° West  Level FlightAware Approximate
Sun 12:44:00 PM 64.2796 -27.5903 254° West  Level FlightAware Approximate
Sun 12:45:00 PM 64.2536 -27.7952 254° West  Level FlightAware Approximate
Sun 12:46:00 PM 64.2273 -27.9997 254° West  Level FlightAware Approximate
Sun 12:47:00 PM 64.2007 -28.2038 253° West  Level FlightAware Approximate
Sun 12:48:00 PM 64.1738 -28.4076 253° West  Level FlightAware Approximate
Sun 12:49:00 PM 64.1466 -28.6109 253° West  Level FlightAware Approximate
Sun 12:50:00 PM 64.1192 -28.8138 253° West  Level FlightAware Approximate
Sun 12:51:00 PM 64.0915 -29.0164 253° West  Level FlightAware Approximate
Sun 12:52:00 PM 64.0634 -29.2185 253° West  Level FlightAware Approximate
Sun 12:53:00 PM 64.0351 -29.4202 252° West  Level FlightAware Approximate
Sun 12:54:00 PM 64.0066 -29.6215 252° West  Level FlightAware Approximate
Sun 12:55:00 PM 63.9777 -29.8224 252° West  Level FlightAware Approximate
Sun 12:56:00 PM 63.9486 -30.0229 252° West  Level FlightAware Approximate
Sun 12:57:00 PM 63.9192 -30.2230 252° West  Level FlightAware Approximate
Sun 12:58:00 PM 63.8895 -30.4226 251° West  Level FlightAware Approximate
Sun 12:59:00 PM 63.8596 -30.6218 251° West  Level FlightAware Approximate
Sun 01:00:00 PM 63.8293 -30.8206 251° West  Level FlightAware Approximate
Sun 01:01:00 PM 63.7988 -31.0190 251° West  Level FlightAware Approximate
Sun 01:02:00 PM 63.7681 -31.2169 251° West  Level FlightAware Approximate
Sun 01:03:00 PM 63.7370 -31.4144 251° West  Level FlightAware Approximate
Sun 01:04:00 PM 63.7057 -31.6115 250° West  Level FlightAware Approximate
Sun 01:05:00 PM 63.6741 -31.8081 250° West  Level FlightAware Approximate
Sun 01:06:00 PM 63.6423 -32.0043 250° West  Level FlightAware Approximate
Sun 01:07:00 PM 63.6102 -32.2001 250° West  Level FlightAware Approximate
Sun 01:08:00 PM 63.5778 -32.3954 250° West  Level FlightAware Approximate
Sun 01:09:00 PM 63.5452 -32.5902 249° West  Level FlightAware Approximate
Sun 01:10:00 PM 63.5122 -32.7846 249° West  Level FlightAware Approximate
Sun 01:11:00 PM 63.4791 -32.9786 249° West  Level FlightAware Approximate
Sun 01:12:00 PM 63.4456 -33.1721 249° West  Level FlightAware Approximate
Sun 01:13:00 PM 63.4120 -33.3652 249° West  Level FlightAware Approximate
Sun 01:14:00 PM 63.3780 -33.5578 249° West  Level FlightAware Approximate
Sun 01:15:00 PM 63.3438 -33.7499 248° West  Level FlightAware Approximate
Sun 01:16:00 PM 63.3093 -33.9416 248° West  Level FlightAware Approximate
Sun 01:17:00 PM 63.2746 -34.1328 248° West  Level FlightAware Approximate
Sun 01:18:00 PM 63.2396 -34.3236 248° West  Level FlightAware Approximate
Sun 01:19:00 PM 63.2044 -34.5139 248° West  Level FlightAware Approximate
Sun 01:20:00 PM 63.1689 -34.7037 248° West  Level FlightAware Approximate
Sun 01:21:00 PM 63.1331 -34.8931 247° West  Level FlightAware Approximate
Sun 01:22:00 PM 63.0971 -35.0820 247° West  Level FlightAware Approximate
Sun 01:23:00 PM 63.0609 -35.2704 247° West  Level FlightAware Approximate
Sun 01:24:00 PM 63.0244 -35.4584 247° West  Level FlightAware Approximate
Sun 01:25:00 PM 62.9877 -35.6459 247° West  Level FlightAware Approximate
Sun 01:26:00 PM 62.9507 -35.8329 247° West  Level FlightAware Approximate
Sun 01:27:00 PM 62.9134 -36.0195 246° West  Level FlightAware Approximate
Sun 01:28:00 PM 62.8759 -36.2055 246° West  Level FlightAware Approximate
Sun 01:29:00 PM 62.8290 -36.3807 246° West  Level Estimated
Sun 01:30:00 PM 62.7924 -36.5671 247° West  Level FlightAware Approximate
Sun 01:31:00 PM 62.7556 -36.7531 247° West  Level FlightAware Approximate
Sun 01:32:00 PM 62.7186 -36.9386 247° West  Level FlightAware Approximate
Sun 01:33:00 PM 62.6813 -37.1236 246° West  Level FlightAware Approximate
Sun 01:34:00 PM 62.6437 -37.3082 246° West  Level FlightAware Approximate
Sun 01:35:00 PM 62.6060 -37.4923 246° West  Level FlightAware Approximate
Sun 01:36:00 PM 62.5679 -37.6759 246° West  Level FlightAware Approximate
Sun 01:37:00 PM 62.5063 -37.8912 238° Southwest  Level Estimated
Sun 01:38:00 PM 62.4536 -38.0738 238° Southwest  Level Estimated
Sun 01:38:28 PM 59.7833 -55.9833 237° Southwest 450 518 36,000  Level Gander Center
Sun 01:39:00 PM 62.4006 -38.2558 238° Southwest  Level Estimated
Sun 01:39:28 PM 59.6833 -56.2000 228° Southwest 440 506 36,000  Level Gander Center
Sun 01:40:00 PM 62.3475 -38.4372 238° Southwest  Level Estimated
Sun 01:40:28 PM 59.6167 -56.3833 234° Southwest 450 518 36,000  Level Gander Center
Sun 01:41:00 PM 62.2940 -38.6179 238° Southwest  Level Estimated
Sun 01:41:28 PM 59.5333 -56.5833 231° Southwest 450 518 36,000  Level Gander Center
Sun 01:42:00 PM 62.2404 -38.7979 237° Southwest  Level Estimated
Sun 01:42:28 PM 59.4667 -56.7667 234° Southwest 450 518 36,000  Level Gander Center
Sun 01:43:00 PM 62.1865 -38.9773 237° Southwest  Level Estimated
Sun 01:43:28 PM 59.3833 -56.9333 226° Southwest 450 518 36,000  Level Gander Center
Sun 01:44:28 PM 59.2833 -57.1333 226° Southwest 450 518 36,000  Level Gander Center
Sun 01:45:28 PM 59.2167 -57.3167 235° Southwest 440 506 36,000  Level Gander Center
Sun 01:46:28 PM 59.1333 -57.5167 231° Southwest 440 506 36,000  Level Gander Center
Sun 01:47:28 PM 59.0500 -57.6833 226° Southwest 440 506 36,000  Level Gander Center
Sun 01:48:28 PM 58.9833 -57.8500 232° Southwest 440 506 36,000  Level Gander Center
Sun 01:50:00 PM 58.8734 -58.1008 230° Southwest  Level FlightAware Approximate
Sun 01:51:28 PM 58.7333 -58.4000 230° Southwest 440 506 36,000  Level Gander Center
Sun 01:52:28 PM 58.6667 -58.5833 235° Southwest 440 506 36,000  Level Gander Center
Sun 01:53:28 PM 58.5833 -58.7500 226° Southwest 440 506 36,000  Level Gander Center
Sun 01:54:28 PM 58.4833 -58.9167 221° Southwest 440 506 36,000  Level Gander Center
Sun 01:55:28 PM 58.4000 -59.1167 232° Southwest 440 506 36,000  Level Gander Center
Sun 01:56:28 PM 58.3167 -59.2833 226° Southwest 440 506 36,000  Level Gander Center
Sun 01:57:28 PM 58.2333 -59.4500 227° Southwest 440 506 36,000  Level Gander Center
Sun 01:58:28 PM 58.1667 -59.6333 235° Southwest 440 506 36,000  Level Gander Center
Sun 01:59:28 PM 58.0667 -59.7333 208° Southwest 440 506 36,000  Level Gander Center
Sun 02:00:28 PM 57.9500 -59.8667 211° Southwest 440 506 36,000  Level Gander Center
Sun 02:01:28 PM 57.8333 -59.9667 205° Southwest 450 518 36,000  Level Gander Center
Sun 02:02:28 PM 57.7333 -60.0667 208° Southwest 450 518 36,000  Level Gander Center
Sun 02:03:28 PM 57.6167 -60.2000 211° Southwest 450 518 36,000  Level Gander Center
Sun 02:04:28 PM 57.5000 -60.2833 201° Southwest 450 518 36,000  Level Gander Center
Sun 02:05:28 PM 57.3833 -60.3833 205° Southwest 450 518 36,000  Level Gander Center
Sun 02:06:28 PM 57.2667 -60.5167 212° Southwest 450 518 36,000  Level Gander Center
Sun 02:07:28 PM 57.1667 -60.6000 204° Southwest 450 518 36,000  Level Gander Center
Sun 02:08:28 PM 57.0500 -60.7333 212° Southwest 450 518 36,000  Level Gander Center
Sun 02:09:28 PM 56.9333 -60.8167 201° Southwest 450 518 36,000  Level Gander Center
Sun 02:10:28 PM 56.8333 -60.9167 209° Southwest 430 495 36,000  Level Gander Center
Sun 02:11:28 PM 56.7167 -61.0167 205° Southwest 440 506 36,000  Level Gander Center
Sun 02:12:28 PM 56.6000 -61.1333 209° Southwest 450 518 36,000  Level Gander Center
Sun 02:13:28 PM 56.5000 -61.2167 205° Southwest 450 518 36,000  Level Gander Center
Sun 02:14:28 PM 56.3833 -61.3167 205° Southwest 440 506 36,000  Level Gander Center
Sun 02:15:28 PM 56.2667 -61.4333 209° Southwest 440 506 36,000  Level Gander Center
Sun 02:16:28 PM 56.1500 -61.5167 202° Southwest 450 518 36,000  Level Gander Center
Sun 02:17:28 PM 56.0500 -61.6167 209° Southwest 440 506 36,000  Level Gander Center
Sun 02:18:28 PM 55.9500 -61.7000 205° Southwest 440 506 36,000  Level Gander Center
Sun 02:19:28 PM 55.8333 -61.8167 209° Southwest 450 518 36,000  Level Gander Center
Sun 02:20:28 PM 55.7167 -61.9000 202° Southwest 440 506 36,000  Level Gander Center
Sun 02:21:28 PM 55.6000 -62.0167 209° Southwest 440 506 36,000  Level Gander Center
Sun 02:22:28 PM 55.5000 -62.1000 205° Southwest 450 518 36,000  Level Gander Center
Sun 02:23:28 PM 55.3833 -62.2000 206° Southwest 440 506 36,000  Level Gander Center
Sun 02:24:28 PM 55.2833 -62.2833 205° Southwest 440 506 36,000  Level Gander Center
Sun 02:25:28 PM 55.1667 -62.3667 202° Southwest 450 518 36,000  Level Gander Center
Sun 02:26:28 PM 55.0500 -62.4833 210° Southwest 440 506 36,000  Level Gander Center
Sun 02:27:28 PM 54.9500 -62.5667 206° Southwest 440 506 36,000  Level Gander Center
Sun 02:28:28 PM 54.8333 -62.6500 202° Southwest 440 506 36,000  Level Gander Center
Sun 02:29:28 PM 54.7167 -62.7500 206° Southwest 440 506 36,000  Level Gander Center
Sun 02:31:28 PM 54.4833 -62.9167 203° Southwest 450 518 36,000  Level Gander Center
Sun 02:32:28 PM 54.3667 -63.0333 210° Southwest 450 518 36,000  Level Gander Center
Sun 02:33:28 PM 54.2667 -63.1167 206° Southwest 450 518 36,000  Level Gander Center
Sun 02:34:28 PM 54.1500 -63.2000 203° Southwest 450 518 36,000  Level Gander Center
Sun 02:35:28 PM 54.0333 -63.3000 207° Southwest 450 518 36,000  Level Gander Center
Sun 02:36:28 PM 53.9333 -63.3833 206° Southwest 440 506 36,000  Level Gander Center
Sun 02:37:28 PM 53.8167 -63.4667 203° Southwest 450 518 36,000  Level Gander Center
Sun 02:38:28 PM 53.7167 -63.5333 202° Southwest 450 518 36,000  Level Gander Center
Sun 02:39:28 PM 53.5833 -63.6500 207° Southwest 450 518 36,000  Level Gander Center
Sun 02:40:28 PM 53.4667 -63.7333 203° Southwest 450 518 36,000  Level Gander Center
Sun 02:41:28 PM 53.3667 -63.8000 202° Southwest 450 518 36,000  Level Gander Center
Sun 02:42:28 PM 53.2500 -63.9167 211° Southwest 440 506 36,000  Level Gander Center
Sun 02:43:28 PM 53.1333 -63.9833 199° South 440 506 36,000  Level Gander Center
Sun 02:44:28 PM 53.0333 -64.0667 207° Southwest 450 518 36,000  Level Gander Center
Sun 02:45:28 PM 52.9167 -64.1333 199° South 450 518 36,000  Level Gander Center
Sun 02:46:28 PM 52.7833 -64.2333 204° Southwest 450 518 36,000  Level Gander Center
Sun 02:47:28 PM 52.6833 -64.3167 207° Southwest 450 518 36,000  Level Gander Center
Sun 02:48:28 PM 52.5667 -64.3833 199° South 450 518 36,000  Level Gander Center
Sun 02:49:28 PM 52.4500 -64.5000 211° Southwest 440 506 36,000  Level Gander Center
Sun 02:50:28 PM 52.3500 -64.5667 202° Southwest 440 506 36,000  Level Gander Center
Sun 02:51:28 PM 52.2333 -64.6333 199° South 440 506 36,000  Level Gander Center
Sun 02:52:28 PM 52.1167 -64.7167 204° Southwest 440 506 36,000  Level Gander Center
Sun 02:53:28 PM 52.0000 -64.8167 208° Southwest 440 506 36,000  Level Gander Center
Sun 02:54:28 PM 51.8833 -64.8833 199° South 440 506 36,000  Level Gander Center
Sun 02:55:28 PM 51.7833 -64.9667 207° Southwest 440 506 36,000  Level Gander Center
Sun 02:56:28 PM 51.6667 -65.0500 204° Southwest 440 506 36,000  Level Gander Center
Sun 02:57:28 PM 51.5667 -65.1333 207° Southwest 440 506 36,000  Level Gander Center
Sun 02:58:28 PM 51.4500 -65.2000 200° South 440 506 36,000  Level Gander Center
Sun 02:59:28 PM 51.3167 -65.2667 197° South 440 506 36,000  Level Gander Center
Sun 03:00:28 PM 51.2167 -65.3333 203° Southwest 440 506 36,000  Level Gander Center
Sun 03:01:28 PM 51.1000 -65.4333 208° Southwest 440 506 36,000  Level Gander Center
Sun 03:02:28 PM 51.0000 -65.5000 203° Southwest 440 506 36,000  Level Gander Center
Sun 03:03:28 PM 50.8833 -65.5833 204° Southwest 440 506 36,000  Level Gander Center
Sun 03:04:28 PM 50.7667 -65.6500 200° South 440 506 36,000  Level Gander Center
Sun 03:05:28 PM 50.6500 -65.7333 204° Southwest 440 506 36,000  Level Gander Center
Sun 03:06:28 PM 50.5333 -65.8167 204° Southwest 440 506 36,000  Level Gander Center
Sun 03:08:28 PM 50.3167 -65.9500 201° Southwest 440 506 36,000  Level Gander Center
Sun 03:09:28 PM 50.2000 -66.0167 200° South 440 506 36,000  Level Gander Center
Sun 03:10:28 PM 50.0833 -66.1000 205° Southwest 430 495 36,000  Level Gander Center
Sun 03:11:28 PM 49.9833 -66.1667 203° Southwest 430 495 36,000  Level Gander Center
Sun 03:13:28 PM 49.7667 -66.3000 202° Southwest 430 495 36,000  Level Gander Center
Sun 03:14:28 PM 49.6500 -66.3667 200° South 430 495 36,000  Level Gander Center
Sun 03:15:28 PM 49.5333 -66.4667 209° Southwest 420 483 36,000  Level Gander Center
Sun 03:16:28 PM 49.4333 -66.5333 203° Southwest 420 483 36,000  Level Gander Center
Sun 03:17:28 PM 49.3167 -66.6000 200° South 420 483 36,000  Level Gander Center
Sun 03:19:00 PM 49.1588 -66.6958 202° Southwest  Level FlightAware Approximate
Sun 03:22:28 PM 48.7833 -66.9167 201° Southwest 420 483 36,000  Level Gander Center
Sun 03:23:28 PM 48.6667 -66.9833 201° Southwest 420 483 36,000  Level Gander Center
Sun 03:24:28 PM 48.5500 -67.0500 201° Southwest 410 472 36,000  Level Gander Center
Sun 03:25:28 PM 48.4500 -67.1000 198° South 410 472 36,000  Level Gander Center
Sun 03:26:00 PM 48.4370 -67.1253 202° Southwest  Level FlightAware Approximate
Sun 03:26:28 PM 48.3667 -67.1667 208° Southwest 400 460 36,000  Level Gander Center
Sun 03:27:00 PM 48.3337 -67.1857 201° Southwest  Level FlightAware Approximate
Sun 03:27:28 PM 48.2333 -67.2333 198° South 400 460 36,000  Level Gander Center
Sun 03:28:28 PM 48.1500 -67.3000 208° Southwest 400 460 36,000  Level Gander Center
Sun 03:34:07 PM 47.5810 -67.6357 208° Southwest 394 453 36,000  Level FlightAware ADS-B
Sun 03:34:48 PM 47.5128 -67.6750 201° Southwest 393 452 36,000  Level FlightAware ADS-B
Sun 03:35:37 PM 47.4272 -67.7243 201° Southwest 393 452 36,000  Level FlightAware ADS-B
Sun 03:36:29 PM 47.3395 -67.7747 201° Southwest 394 453 36,000  Level FlightAware ADS-B
Sun 03:37:09 PM 47.2714 -67.8136 201° Southwest 396 456 36,000  Level FlightAware ADS-B
Sun 03:37:43 PM 47.2150 -67.8459 201° Southwest 396 456 36,000  Level FlightAware ADS-B
Sun 03:38:22 PM 47.1472 -67.8845 201° Southwest 395 455 36,000  Level FlightAware ADS-B
Sun 03:39:02 PM 47.0791 -67.9230 201° Southwest 394 453 36,000  Level FlightAware ADS-B
Sun 03:39:43 PM 47.0122 -67.9607 201° Southwest 396 456 36,000  Level FlightAware ADS-B
Sun 03:40:18 PM 46.9513 -67.9951 201° Southwest 398 458 36,000  Level FlightAware ADS-B
Sun 03:40:58 PM 46.8831 -68.0335 201° Southwest 399 459 36,000  Level FlightAware ADS-B
Sun 03:41:45 PM 46.8058 -68.0769 201° Southwest 399 459 36,000  Level FlightAware ADS-B
Sun 03:42:24 PM 46.7308 -68.1123 198° South 409 471 36,000  Level FlightAware ADS-B
Sun 03:43:01 PM 46.6646 -68.1401 196° South 409 471 36,000  Level FlightAware ADS-B
Sun 03:43:41 PM 46.5918 -68.1707 196° South 409 471 36,000  Level FlightAware ADS-B
Sun 03:44:24 PM 46.5137 -68.2031 196° South 408 470 36,000  Level FlightAware ADS-B
Sun 03:45:04 PM 46.4401 -68.2335 196° South 407 468 36,000  Level FlightAware ADS-B
Sun 03:45:42 PM 46.3731 -68.2612 196° South 407 468 36,000 231 Level FlightAware ADS-B
Sun 03:46:22 PM 46.2991 -68.2916 196° South 407 468 36,300 917 Climbing FlightAware ADS-B
Sun 03:46:54 PM 46.2431 -68.3144 196° South 402 463 37,100 1,216 Climbing FlightAware ADS-B
Sun 03:47:36 PM 46.1689 -68.3448 196° South 403 464 37,800 593 Climbing FlightAware ADS-B
Sun 03:48:25 PM 46.0800 -68.3814 196° South 403 464 38,000 136 Climbing FlightAware ADS-B
Sun 03:49:04 PM 46.0094 -68.4099 196° South 400 460 38,000  Level FlightAware ADS-B
Sun 03:49:59 PM 45.9206 -68.4459 196° South 398 458 38,000  Level FlightAware ADS-B
Sun 03:50:34 PM 45.8507 -68.4740 196° South 399 459 38,000  Level FlightAware ADS-B (WASR / MKW)
Sun 03:51:11 PM 45.7839 -68.5009 196° South 397 457 38,000  Level FlightAware ADS-B
Sun 03:51:50 PM 45.7209 -68.5263 196° South 394 453 38,000  Level FlightAware ADS-B
Sun 03:52:30 PM 45.6468 -68.5562 196° South 392 451 38,000  Level FlightAware ADS-B (WASR / MKW)
Sun 03:54:27 PM 45.4430 -68.6376 196° South 391 450 38,000  Level FlightAware ADS-B (WASR / MKW)
Sun 03:55:08 PM 45.3723 -68.6657 196° South 393 452 38,000  Level FlightAware ADS-B (WASR / MKW)
Sun 03:55:44 PM 45.3134 -68.6890 196° South 394 453 38,000  Level FlightAware ADS-B (WASR / MKW)
Sun 03:56:03 PM 45.2903 -68.6992 206° Southwest 391 450 38,000  Level Boston Center
Sun 03:56:14 PM 45.2590 -68.7105 196° South 396 456 38,000  Level FlightAware ADS-B (EGUN / MHZ)
Sun 03:56:52 PM 45.1913 -68.7372 196° South 397 457 38,000  Level FlightAware ADS-B (EGUN / MHZ)
Sun 03:57:22 PM 45.1398 -68.7574 195° South 398 458 38,000  Level FlightAware ADS-B
Sun 03:57:59 PM 45.0707 -68.7846 196° South 400 460 38,000  Level FlightAware ADS-B (WASR / MKW)
Sun 03:58:45 PM 44.9896 -68.8164 195° South 400 460 38,000  Level FlightAware ADS-B (WASR / MKW)
Sun 04:01:00 PM 44.7858 -68.8992 206° Southwest  Level FlightAware Approximate
Sun 04:01:35 PM 44.7212 -68.9563 206° Southwest 374 430 38,000  Level FlightAware ADS-B (EGUN / MHZ)
Sun 04:02:12 PM 44.6488 -69.0059 206° Southwest 376 433 38,000  Level FlightAware ADS-B
Sun 04:02:42 PM 44.6020 -69.0378 206° Southwest 378 435 38,000  Level FlightAware ADS-B (WASR / MKW)
Sun 04:03:23 PM 44.5432 -69.0777 206° Southwest 380 437 38,000  Level FlightAware ADS-B (WASR / MKW)
Sun 04:04:02 PM 44.4801 -69.1204 206° Southwest 380 437 38,000  Level FlightAware ADS-B (EGUN / MHZ)
Sun 04:04:41 PM 44.4185 -69.1619 206° Southwest 379 436 38,000  Level FlightAware ADS-B (EGUN / MHZ)
Sun 04:05:19 PM 44.3556 -69.2042 206° Southwest 378 435 38,000  Level FlightAware ADS-B (EGUN / MHZ)
Sun 04:05:50 PM 44.3042 -69.2388 206° Southwest 379 436 38,000  Level FlightAware ADS-B
Sun 04:06:24 PM 44.2619 -69.2673 206° Southwest 378 435 38,000  Level FlightAware ADS-B (WASR / MKW)
Sun 04:06:56 PM 44.2036 -69.3062 206° Southwest 380 437 38,000  Level FlightAware ADS-B (EGUN / MHZ)
Sun 04:07:43 PM 44.1258 -69.3582 206° Southwest 382 440 38,000  Level FlightAware ADS-B (WASR / MKW)
Sun 04:08:15 PM 44.0745 -69.3924 206° Southwest 376 433 38,000  Level FlightAware ADS-B
Sun 04:08:57 PM 44.0088 -69.4360 206° Southwest 375 432 38,000  Level FlightAware ADS-B
Sun 04:09:34 PM 43.9704 -69.4615 206° Southwest 382 440 38,000  Level FlightAware ADS-B (KBOS)
Sun 04:10:09 PM 43.8984 -69.5092 205° Southwest 382 440 38,000  Level FlightAware ADS-B (KBOS)
Sun 04:10:44 PM 43.8385 -69.5488 206° Southwest 384 442 38,000  Level FlightAware ADS-B (KBOS)
Sun 04:11:23 PM 43.7818 -69.5862 205° Southwest 385 443 38,000  Level FlightAware ADS-B (WASR / MKW)
Sun 04:12:00 PM 43.7167 -69.6291 205° Southwest 386 444 38,000  Level FlightAware ADS-B (KBOS)
Sun 04:12:41 PM 43.6507 -69.6724 205° Southwest 387 445 38,000  Level FlightAware ADS-B (KBOS)
Sun 04:13:14 PM 43.5981 -69.7067 205° Southwest 379 436 38,000  Level FlightAware ADS-B
Sun 04:13:45 PM 43.5468 -69.7402 205° Southwest 385 443 38,000  Level FlightAware ADS-B (KBOS)
Sun 04:14:20 PM 43.4907 -69.7768 205° Southwest 379 436 38,000  Level FlightAware ADS-B
Sun 04:14:58 PM 43.4271 -69.8143 203° Southwest 390 449 38,000  Level FlightAware ADS-B
Sun 04:15:38 PM 43.3572 -69.8396 195° South 411 473 38,000  Level FlightAware ADS-B
Sun 04:16:10 PM 43.2991 -69.8508 188° South 422 486 38,000  Level FlightAware ADS-B (EGUN / MHZ)
Sun 04:16:40 PM 43.2421 -69.8599 187° South 416 479 38,000  Level FlightAware ADS-B (EGUN / MHZ)
Sun 04:17:20 PM 43.1612 -69.8728 187° South 408 470 38,000  Level FlightAware ADS-B
Sun 04:17:51 PM 43.1032 -69.8815 186° South 416 479 38,000  Level FlightAware ADS-B (KBOS)
Sun 04:18:30 PM 43.0276 -69.8926 186° South 417 480 38,000  Level FlightAware ADS-B (KBOS)
Sun 04:19:02 PM 42.9633 -69.9020 186° South 418 481 38,000  Level FlightAware ADS-B (SBBR / BSB)
Sun 04:19:36 PM 42.9004 -69.9112 186° South 419 482 38,000  Level FlightAware ADS-B (KBOS)
Sun 04:20:17 PM 42.8225 -69.9225 186° South 421 484 38,000  Level FlightAware ADS-B (KBOS)
Sun 04:20:52 PM 42.8204 -69.9228 186° South 421 484 38,000  Level FlightAware ADS-B (KOWD)
Sun 04:21:42 PM 42.9383 -69.9057 North 419 482 38,000  Level FlightAware ADS-B (EGUN / MHZ)
Sun 04:23:12 PM 42.6032 -69.9539 186° South 418 481 38,000  Level FlightAware ADS-B (KOWD)
Sun 04:23:59 PM 42.3924 -69.9841 186° South 419 482 38,000  Level FlightAware ADS-B
Sun 04:24:34 PM 42.3257 -69.9937 186° South 420 483 38,000  Level FlightAware ADS-B
Sun 04:25:06 PM 42.2647 -70.0024 186° South 421 484 38,000  Level FlightAware ADS-B (KBOS)
Sun 04:25:47 PM 42.1855 -70.0138 186° South 418 481 38,000  Level FlightAware ADS-B (KBOS)
Sun 04:26:20 PM 42.1238 -70.0306 191° South 401 461 38,000  Level FlightAware ADS-B
Sun 04:26:59 PM 42.0569 -70.0624 199° South 384 442 38,000  Level FlightAware ADS-B
Sun 04:27:30 PM 42.0105 -70.0940 207° Southwest 375 432 38,000  Level FlightAware ADS-B (KBOS)
Sun 04:28:06 PM 41.9575 -70.1413 214° Southwest 364 419 38,000  Level FlightAware ADS-B (KBOS)
Sun 04:28:40 PM 41.9151 -70.1904 221° Southwest 357 411 38,000  Level FlightAware ADS-B
Sun 04:29:12 PM 41.8796 -70.2410 227° Southwest 352 405 38,000  Level FlightAware ADS-B (KBOS)
Sun 04:29:54 PM 41.8327 -70.3088 227° Southwest 352 405 38,000  Level FlightAware ADS-B (SBBR / BSB)
Sun 04:30:34 PM 41.7884 -70.3730 227° Southwest 350 403 38,000  Level FlightAware ADS-B (KBOS)
Sun 04:30:56 PM 41.7649 -70.4073 227° Southwest 345 397 38,000  Level FlightAware ADS-B
Sun 04:31:12 PM 41.7473 -70.4328 227° Southwest 345 397 38,000  Level FlightAware ADS-B
Sun 04:31:57 PM 41.6983 -70.5040 227° Southwest 344 396 38,000  Level FlightAware ADS-B
Sun 04:32:13 PM 41.6809 -70.5294 227° Southwest 344 396 38,000  Level FlightAware ADS-B
Sun 04:32:58 PM 41.6314 -70.6010 227° Southwest 350 403 38,000  Level FlightAware ADS-B (SBBR / BSB)
Sun 04:33:14 PM 41.6136 -70.6268 227° Southwest 350 403 38,000  Level FlightAware ADS-B (KBOS)
Sun 04:33:17 PM 41.6093 -70.6329 227° Southwest 344 396 38,000  Level FlightAware ADS-B
Sun 04:33:59 PM 41.5824 -70.6717 227° Southwest 350 403 38,000  Level FlightAware ADS-B (SBBR / BSB)
Sun 04:34:17 PM 41.5447 -70.7261 227° Southwest 344 396 38,000  Level FlightAware ADS-B
Sun 04:34:49 PM 41.5136 -70.7709 227° Southwest 349 402 38,000  Level FlightAware ADS-B (SBBR / BSB)
Sun 04:35:20 PM 41.4760 -70.8249 227° Southwest 344 396 38,000  Level FlightAware ADS-B
Sun 04:35:55 PM 41.4505 -70.8614 227° Southwest 350 403 38,000  Level FlightAware ADS-B (SBBR / BSB)
Sun 04:36:19 PM 41.4116 -70.9173 227° Southwest 344 396 38,000  Level FlightAware ADS-B
Sun 04:36:38 PM 41.3901 -70.9481 227° Southwest 344 396 38,000  Level FlightAware ADS-B
Sun 04:37:00 PM 41.3660 -70.9825 227° Southwest 344 396 38,000  Level FlightAware ADS-B
Sun 04:37:21 PM 41.3429 -71.0154 227° Southwest 350 403 38,000  Level FlightAware ADS-B (SBBR / BSB)
Sun 04:38:40 PM 41.2607 -71.1432 229° Southwest 335 386 38,000  Level FlightAware ADS-B
Sun 04:39:20 PM 41.2323 -71.2172 243° Southwest 329 379 38,000  Level FlightAware ADS-B
Sun 04:39:52 PM 41.2323 -71.2172 153° Southeast 331 381 38,000  Level FlightAware ADS-B (KOWD)
Sun 04:40:40 PM 41.1901 -71.3689 250° West 331 381 38,000  Level FlightAware ADS-B
Sun 04:41:18 PM 41.1701 -71.4399 249° West 330 380 38,000  Level FlightAware ADS-B
Sun 04:41:52 PM 41.1687 -71.4448 249° West 336 387 38,000  Level FlightAware ADS-B (KOWD)
Sun 04:42:17 PM 41.1296 -71.5319 239° Southwest 349 402 38,000  Level FlightAware ADS-B (KSNC)
Sun 04:42:56 PM 41.0873 -71.5915 227° Southwest 349 402 38,000  Level FlightAware ADS-B (KSNC)
Sun 04:43:37 PM 41.0443 -71.6524 227° Southwest 350 403 38,000  Level FlightAware ADS-B (KSNC)
Sun 04:44:19 PM 40.9956 -71.7209 227° Southwest 350 403 38,000  Level FlightAware ADS-B (KSNC)
Sun 04:45:00 PM 40.9422 -71.7960 227° Southwest 350 403 38,000  Level FlightAware ADS-B (SBBR / BSB)
Sun 04:45:37 PM 40.9011 -71.8535 227° Southwest 352 405 38,000  Level FlightAware ADS-B (SBBR / BSB)
Sun 04:46:20 PM 40.8536 -71.9200 227° Southwest 352 405 38,000  Level FlightAware ADS-B (SBBR / BSB)
Sun 04:46:52 PM 40.8173 -71.9707 227° Southwest 352 405 38,000  Level FlightAware ADS-B (SBBR / BSB)
Sun 04:47:43 PM 40.7674 -72.0402 227° Southwest 353 406 38,000  Level FlightAware ADS-B (SBBR / BSB)
Sun 04:48:21 PM 40.7238 -72.1007 226° Southwest 353 406 38,000  Level FlightAware ADS-B (KSNC)
Sun 04:49:07 PM 40.7521 -72.0615 46° Northeast 353 406 38,000  Level FlightAware ADS-B (SBBR / BSB)
Sun 04:50:28 PM 40.5797 -72.3011 227° Southwest 354 407 38,000  Level FlightAware ADS-B (KSNC)
Sun 04:51:02 PM 40.5364 -72.3610 226° Southwest 354 407 38,000  Level FlightAware ADS-B (KSNC)
Sun 04:51:41 PM 40.4923 -72.4219 226° Southwest 356 410 38,000  Level FlightAware ADS-B (KSNC)
Sun 04:52:22 PM 40.4457 -72.4861 226° Southwest 358 412 38,000  Level FlightAware ADS-B (KSNC)
Sun 04:53:02 PM 40.3997 -72.5493 226° Southwest 358 412 38,000  Level FlightAware ADS-B (KSNC)
Sun 04:53:07 PM 40.4067 -72.5394 225° Southwest 359 413 38,000  Level Boston Center
Sun 04:53:33 PM 40.3651 -72.5965 226° Southwest 357 411 38,000  Level FlightAware ADS-B (KSNC)
Sun 04:56:00 PM 40.2001 -72.8109 225° Southwest  Level FlightAware Approximate
Sun 04:57:00 PM 40.1326 -72.8981 225° Southwest  Level FlightAware Approximate
Sun 04:58:00 PM 40.0651 -72.9851 225° Southwest  Level FlightAware Approximate
Sun 04:58:44 PM 40.0131 -73.0756 225° Southwest 353 406 38,000  Level FlightAware ADS-B (KWWD)
Sun 04:59:21 PM 39.9721 -73.1307 226° Southwest 354 407 38,000  Level FlightAware ADS-B (KSNC)
Sun 04:59:51 PM 39.9369 -73.1781 226° Southwest 350 403 38,000  Level FlightAware ADS-B (KWWD)
Sun 05:00:29 PM 39.8946 -73.2349 226° Southwest 351 404 38,000  Level FlightAware ADS-B (KWWD)
Sun 05:01:08 PM 39.8487 -73.2964 226° Southwest 355 409 38,000  Level FlightAware ADS-B (KSNC)
Sun 05:01:46 PM 39.8053 -73.3545 226° Southwest 350 403 38,000  Level FlightAware ADS-B (KWWD)
Sun 05:02:19 PM 39.7717 -73.3995 226° Southwest 355 409 38,000  Level FlightAware ADS-B (KSNC)
Sun 05:02:49 PM 39.7344 -73.4492 226° Southwest 349 402 38,000  Level FlightAware ADS-B (KWWD)
Sun 05:03:32 PM 39.6846 -73.5154 226° Southwest 353 406 38,000  Level FlightAware ADS-B (KWWD)
Sun 05:04:14 PM 39.6384 -73.5770 226° Southwest 348 400 38,000  Level FlightAware ADS-B (KWWD)
Sun 05:04:54 PM 39.5916 -73.6388 226° Southwest 348 400 38,000  Level FlightAware ADS-B (KWWD)
Sun 05:05:33 PM 39.5463 -73.6989 226° Southwest 348 400 38,000  Level FlightAware ADS-B (KWWD)
Sun 05:06:14 PM 39.4998 -73.7603 226° Southwest 347 399 38,000  Level FlightAware ADS-B (KWWD)
Sun 05:06:52 PM 39.4562 -73.8175 225° Southwest 346 398 38,000  Level FlightAware ADS-B (KWWD)
Sun 05:07:32 PM 39.4111 -73.8767 225° Southwest 350 403 38,000  Level FlightAware ADS-B (KWWD)
Sun 05:08:11 PM 39.3667 -73.9351 225° Southwest 349 402 38,000  Level FlightAware ADS-B (KWWD)
Sun 05:08:54 PM 39.3190 -73.9977 225° Southwest 348 400 38,000  Level FlightAware ADS-B (KWWD)
Sun 05:09:30 PM 39.2715 -74.0451 218° Southwest 365 420 38,000  Level FlightAware ADS-B (KWWD)
Sun 05:10:14 PM 39.2093 -74.0971 213° Southwest 365 420 38,000  Level FlightAware ADS-B (KWWD)
Sun 05:10:54 PM 39.1540 -74.1436 213° Southwest 366 421 38,000  Level FlightAware ADS-B (KWWD)
Sun 05:11:32 PM 39.0925 -74.1825 206° Southwest 388 447 38,000  Level FlightAware ADS-B (KWWD)
Sun 05:12:13 PM 39.0197 -74.2088 196° South 402 463 38,000  Level FlightAware ADS-B (KWWD)
Sun 05:12:54 PM 38.9520 -74.2455 203° Southwest 366 421 38,000  Level FlightAware ADS-B (KWWD)
Sun 05:14:15 PM 38.8373 -74.3428 213° Southwest 371 427 38,000  Level FlightAware ADS-B (KWWD)
Sun 05:14:55 PM 38.7792 -74.3917 213° Southwest 372 428 38,000  Level FlightAware ADS-B (KWWD)
Sun 05:15:34 PM 38.7227 -74.4394 213° Southwest 372 428 38,000  Level FlightAware ADS-B (KWWD)
Sun 05:16:15 PM 38.6650 -74.4880 213° Southwest 370 426 38,000  Level FlightAware ADS-B (KWWD)
Sun 05:16:53 PM 38.6107 -74.5336 213° Southwest 371 427 38,000  Level FlightAware ADS-B (KWWD)
Sun 05:17:34 PM 38.5515 -74.5832 213° Southwest 370 426 38,000  Level FlightAware ADS-B (KWWD)
Sun 05:18:15 PM 38.4950 -74.6304 213° Southwest 371 427 38,000  Level FlightAware ADS-B (KWWD)
Sun 05:18:54 PM 38.4366 -74.6792 213° Southwest 371 427 38,000  Level FlightAware ADS-B (KWWD)
Sun 05:19:34 PM 38.3806 -74.7258 213° Southwest 370 426 38,000  Level FlightAware ADS-B (KWWD)
Sun 05:20:14 PM 38.3247 -74.7725 213° Southwest 368 423 38,000  Level FlightAware ADS-B (KWWD)
Sun 05:20:54 PM 38.2667 -74.8205 213° Southwest 368 423 38,000  Level FlightAware ADS-B (KWWD)
Sun 05:21:35 PM 38.2083 -74.8689 213° Southwest 368 423 38,000  Level FlightAware ADS-B (KWWD)
Sun 05:22:15 PM 38.1501 -74.9171 213° Southwest 369 425 38,000  Level FlightAware ADS-B (KWWD)
Sun 05:22:53 PM 38.0951 -74.9625 213° Southwest 366 421 38,000  Level FlightAware ADS-B (KWWD)
Sun 05:23:27 PM 38.0473 -75.0019 213° Southwest 367 422 38,000  Level FlightAware ADS-B (KWWD)
Sun 05:26:00 PM 37.8452 -75.1705 213° Southwest  Level FlightAware Approximate
Sun 05:27:00 PM 37.7659 -75.2364 213° Southwest  Level FlightAware Approximate
Sun 05:28:00 PM 37.6865 -75.3021 213° Southwest  Level FlightAware Approximate
Sun 05:29:00 PM 37.6071 -75.3677 213° Southwest  Level FlightAware Approximate
Sun 05:30:00 PM 37.5277 -75.4332 213° Southwest  Level FlightAware Approximate
Sun 05:30:15 PM 37.4507 -75.4883 213° Southwest 381 438 38,000  Level FlightAware ADS-B (KWWD)
Sun 05:30:52 PM 37.3945 -75.5338 213° Southwest 379 436 38,000  Level FlightAware ADS-B (KWWD)
Sun 05:31:36 PM 37.3292 -75.5863 213° Southwest 380 437 38,000  Level FlightAware ADS-B (KWWD)
Sun 05:32:16 PM 37.2698 -75.6339 213° Southwest 380 437 38,000  Level FlightAware ADS-B (KWWD)
Sun 05:32:55 PM 37.2120 -75.6803 213° Southwest 380 437 38,000  Level FlightAware ADS-B (KWWD)
Sun 05:33:37 PM 37.1512 -75.7290 213° Southwest 379 436 38,000  Level FlightAware ADS-B (KWWD)
Sun 05:34:17 PM 37.0920 -75.7765 213° Southwest 379 436 38,000  Level FlightAware ADS-B (KWWD)
Sun 05:34:54 PM 37.0361 -75.8211 212° Southwest 381 438 38,000  Level FlightAware ADS-B (KWWD)
Sun 05:35:35 PM 36.9757 -75.8689 212° Southwest 382 440 38,000  Level FlightAware ADS-B (KWWD)
Sun 05:36:16 PM 36.9143 -75.9177 212° Southwest 383 441 38,000  Level FlightAware ADS-B (KWWD)
Sun 05:36:53 PM 36.8579 -75.9605 211° Southwest 394 453 38,000  Level FlightAware ADS-B (KWWD)
Sun 05:37:36 PM 36.7872 -75.9966 202° Southwest 390 449 38,000  Level FlightAware ADS-B (KWWD)
Sun 05:40:34 PM 36.4794 -76.1534 202° Southwest 401 461 38,000  Level FlightAware ADS-B (KWWD)
Sun 05:41:10 PM 36.4169 -76.1850 202° Southwest 401 461 38,000  Level FlightAware ADS-B (KWWD)
Sun 05:41:43 PM 36.3599 -76.2139 202° Southwest 402 463 38,000  Level FlightAware ADS-B (KWWD)
Sun 05:42:14 PM 36.3080 -76.2400 202° Southwest 403 464 38,000  Level FlightAware ADS-B (KWWD)
Sun 05:43:19 PM 36.2103 -76.2897 202° Southwest 395 455 38,000  Level Washington Center
Sun 05:49:27 PM 35.5559 -76.6155 202° Southwest 406 467 38,000  Level FlightAware ADS-B
Sun 05:50:07 PM 35.4884 -76.6488 202° Southwest 406 467 38,000  Level FlightAware ADS-B
Sun 05:50:47 PM 35.4176 -76.6837 202° Southwest 407 468 38,000  Level FlightAware ADS-B
Sun 05:51:21 PM 35.3709 -76.7067 202° Southwest 410 472 38,000  Level FlightAware ADS-B
Sun 05:52:45 PM 35.2094 -76.7860 202° Southwest 413 475 38,000  Level FlightAware ADS-B
Sun 05:54:15 PM 35.0519 -76.8629 202° Southwest 413 475 38,000  Level FlightAware ADS-B
Sun 05:55:07 PM 34.9589 -76.9083 202° Southwest 415 478 38,000  Level FlightAware ADS-B
Sun 05:55:47 PM 34.8877 -76.9428 202° Southwest 416 479 38,000  Level FlightAware ADS-B
Sun 05:56:27 PM 34.8157 -76.9777 202° Southwest 415 478 38,000  Level FlightAware ADS-B
Sun 05:57:07 PM 34.7443 -77.0123 202° Southwest 414 476 38,000  Level FlightAware ADS-B
Sun 05:59:43 PM 34.4645 -77.1470 202° Southwest 415 478 38,000  Level FlightAware ADS-B
Sun 06:00:21 PM 34.4075 -77.1778 202° Southwest 416 479 38,000  Level Washington Center
Sun 06:01:19 PM 34.3006 -77.2261 200° South 416 479 38,000  Level Washington Center
Sun 06:02:19 PM 34.1914 -77.2767 201° Southwest 416 479 38,000  Level Washington Center
Sun 06:04:15 PM 33.9931 -77.3700 201° Southwest 428 493 38,000  Level Jacksonville Center
Sun 06:05:15 PM 33.8847 -77.4219 202° Southwest 423 487 38,000  Level Jacksonville Center
Sun 06:06:15 PM 33.7742 -77.4736 201° Southwest 428 493 38,000  Level Jacksonville Center
Sun 06:07:15 PM 33.6636 -77.5228 200° South 428 493 38,000  Level Jacksonville Center
Sun 06:08:15 PM 33.5553 -77.5767 203° Southwest 428 493 38,000  Level Jacksonville Center
Sun 06:09:15 PM 33.4450 -77.6283 201° Southwest 428 493 38,000  Level Jacksonville Center
Sun 06:10:15 PM 33.3344 -77.6819 202° Southwest 428 493 38,000  Level Jacksonville Center
Sun 06:11:15 PM 33.2239 -77.7306 200° South 428 493 38,000  Level Jacksonville Center
Sun 06:12:15 PM 33.1133 -77.7842 202° Southwest 428 493 38,000  Level Jacksonville Center
Sun 06:13:15 PM 33.0047 -77.8350 201° Southwest 428 493 38,000  Level Jacksonville Center
Sun 06:14:15 PM 32.8939 -77.8831 200° South 428 493 38,000  Level Jacksonville Center
Sun 06:15:15 PM 32.7814 -77.9364 202° Southwest 428 493 38,000  Level Jacksonville Center
Sun 06:16:15 PM 32.6725 -77.9867 201° Southwest 428 493 38,000  Level Jacksonville Center
Sun 06:17:15 PM 32.5597 -78.0372 201° Southwest 428 493 38,000  Level Jacksonville Center
Sun 06:18:15 PM 32.4492 -78.0900 202° Southwest 428 493 38,000  Level Jacksonville Center
Sun 06:19:15 PM 32.3364 -78.1425 201° Southwest 428 493 38,000  Level Jacksonville Center
Sun 06:20:15 PM 32.2253 -78.1900 200° South 428 493 38,000  Level Jacksonville Center
Sun 06:21:15 PM 32.1042 -78.2453 201° Southwest 428 493 38,000  Level Jacksonville Center
Sun 06:22:15 PM 32.0058 -78.2944 203° Southwest 428 493 38,000  Level Jacksonville Center
Sun 06:23:15 PM 31.8886 -78.3467 201° Southwest 433 498 38,000  Level Jacksonville Center
Sun 06:24:15 PM 31.7778 -78.3961 201° Southwest 433 498 38,000  Level Jacksonville Center
Sun 06:25:15 PM 31.6628 -78.4481 201° Southwest 433 498 38,000  Level Jacksonville Center
Sun 06:26:15 PM 31.5517 -78.4972 201° Southwest 438 504 38,000  Level Jacksonville Center
Sun 06:27:15 PM 31.4367 -78.5489 201° Southwest 444 511 38,000  Level Jacksonville Center
Sun 06:28:15 PM 31.3233 -78.5981 200° South 444 511 38,000  Level Jacksonville Center
Sun 06:29:15 PM 31.2125 -78.6467 201° Southwest 444 511 38,000  Level Jacksonville Center
Sun 06:30:15 PM 31.0972 -78.7006 202° Southwest 444 511 38,000  Level Jacksonville Center
Sun 06:31:15 PM 30.9697 -78.7569 201° Southwest 444 511 38,000  Level Jacksonville Center
Sun 06:32:57 PM 30.7917 -78.8372 201° Southwest 414 476 38,000  Level Miami Center
Sun 06:33:57 PM 30.6703 -78.8831 198° South 428 493 38,000  Level Miami Center
Sun 06:34:57 PM 30.5550 -78.9289 199° South 438 504 38,000  Level Miami Center
Sun 06:36:00 PM 30.4603 -78.9641 198° South  Level FlightAware Approximate
Sun 06:43:00 PM 29.8302 -79.2035 199° South  Level FlightAware Approximate
Sun 06:44:00 PM 29.7403 -79.2381 199° South  Level FlightAware Approximate
Sun 06:45:00 PM 29.6505 -79.2727 198° South  Level FlightAware Approximate
Sun 06:46:00 PM 29.5606 -79.3073 198° South  Level FlightAware Approximate
Sun 06:46:09 PM 29.2267 -79.4506 198° South 451 519 38,000  Level Miami Center
Sun 06:47:00 PM 29.4707 -79.3417 198° South  Level FlightAware Approximate
Sun 06:47:09 PM 29.1069 -79.4931 197° South 451 519 38,000  Level Miami Center
Sun 06:48:00 PM 29.3808 -79.3761 198° South  Level FlightAware Approximate
Sun 06:48:09 PM 28.9853 -79.5375 198° South 451 519 38,000  Level Miami Center
Sun 06:49:00 PM 29.2909 -79.4105 198° South  Level FlightAware Approximate
Sun 06:49:09 PM 28.8675 -79.5822 198° South 451 519 38,000  Level Miami Center
Sun 06:50:00 PM 29.2010 -79.4447 198° South  Level FlightAware Approximate
Sun 06:50:09 PM 28.7497 -79.6289 199° South 451 519 38,000  Level Miami Center
Sun 06:51:00 PM 29.1111 -79.4790 198° South  Level FlightAware Approximate
Sun 06:51:09 PM 28.6300 -79.6708 197° South 451 519 38,000  Level Miami Center
Sun 06:52:09 PM 28.5081 -79.7175 199° South 451 519 38,000  Level Miami Center
Sun 06:53:09 PM 28.3861 -79.7639 199° South 451 519 38,000  Level Miami Center
Sun 06:54:09 PM 28.2661 -79.8081 198° South 456 525 38,000  Level Miami Center
Sun 06:55:09 PM 28.1442 -79.8517 198° South 456 525 38,000  Level Miami Center
Sun 06:56:09 PM 28.0222 -79.8981 199° South 456 525 38,000  Level Miami Center
Sun 06:57:09 PM 27.9044 -79.9419 198° South 456 525 38,000  Level Miami Center
Sun 06:58:09 PM 27.7781 -79.9900 199° South 473 544 38,000  Level Miami Center
Sun 06:59:09 PM 27.6558 -80.0358 198° South 467 537 38,000  Level Miami Center
Sun 07:00:09 PM 27.5319 -80.0794 197° South 467 537 38,000  Level Miami Center
Sun 07:01:09 PM 27.4097 -80.1250 198° South 467 537 38,000  Level Miami Center
Sun 07:02:09 PM 27.2875 -80.1706 198° South 467 537 38,000  Level Miami Center
Sun 07:03:09 PM 27.1653 -80.2161 198° South 467 537 38,000  Level Miami Center
Sun 07:04:09 PM 27.0433 -80.2594 198° South 467 537 38,000  Level Miami Center
Sun 07:05:09 PM 26.9211 -80.3047 198° South 467 537 38,000  Level Miami Center
Sun 07:06:09 PM 26.7989 -80.3522 199° South 467 537 38,000  Level Miami Center
Sun 07:07:09 PM 26.6767 -80.3950 197° South 467 537 38,000  Level Miami Center
Sun 07:08:09 PM 26.5650 -80.4358 198° South 467 537 38,000  Level Miami Center
Sun 07:09:09 PM 26.4300 -80.4853 198° South 467 537 38,000  Level Miami Center
Sun 07:10:09 PM 26.3183 -80.5258 198° South 467 537 38,000  Level Miami Center
Sun 07:11:09 PM 26.1878 -80.5703 197° South 461 531 38,000  Level Miami Center
Sun 07:12:09 PM 26.0814 -80.6525 215° Southwest 461 531 38,000  Level Miami Center
Sun 07:13:09 PM 25.9869 -80.7444 221° Southwest 455 524 38,000  Level Miami Center
Sun 07:14:09 PM 25.8864 -80.8358 219° Southwest 462 532 38,000  Level Miami Center
Sun 07:15:09 PM 25.7878 -80.9247 219° Southwest 462 532 38,000  Level Miami Center
Sun 07:16:09 PM 25.6914 -81.0136 220° Southwest 462 532 38,000  Level Miami Center
Sun 07:17:09 PM 25.5928 -81.1000 218° Southwest 462 532 38,000  Level Miami Center
Sun 07:18:09 PM 25.4942 -81.1911 220° Southwest 462 532 38,000  Level Miami Center
Sun 07:19:09 PM 25.3975 -81.2772 219° Southwest 462 532 38,000  Level Miami Center
Sun 07:20:09 PM 25.2986 -81.3678 220° Southwest 462 532 38,000  Level Miami Center
Sun 07:21:09 PM 25.2000 -81.4536 218° Southwest 462 532 38,000  Level Miami Center
Sun 07:22:09 PM 25.1033 -81.5417 220° Southwest 462 532 38,000  Level Miami Center
Sun 07:23:09 PM 25.0044 -81.6297 219° Southwest 462 532 38,000 -1,367 Level Miami Center
Sun 07:25:00 PM 24.8675 -81.7506 219° Southwest  Level FlightAware Approximate
Sun 07:32:00 PM 24.3439 -82.1996 217° Southwest  Level FlightAware Approximate
Sun 07:33:00 PM 24.2683 -82.2625 217° Southwest  Level FlightAware Approximate
Sun 07:34:00 PM 24.1928 -82.3254 217° Southwest  Level FlightAware Approximate
Sun 07:34:09 PM 23.9731 -82.5172 173° South 397 457 21,600  Level Miami Center
Sun 07:35:00 PM 24.1221 -82.3946 222° Southwest  Level FlightAware Approximate
Sun 07:36:00 PM 24.0520 -82.4647 222° Southwest  Level FlightAware Approximate
Sun 07:36:00 PM 23.7995 -82.4887 171° South  Level FlightAware Approximate
Sun 07:37:00 PM 23.9825 -82.5142 173° South  Level FlightAware Approximate
Sun 07:38:00 PM 23.8884 -82.5007 173° South  Level FlightAware Approximate
Sun 07:39:00 PM 23.7944 -82.4873 173° South  Level FlightAware Approximate
Sun 07:43:00 PM 23.1661 -82.4167 180° South  Level FlightAware Approximate
Sun 07:44:00 PM 23.0723 -82.4045 170° South  Level FlightAware Approximate
Sun 07:45:00 PM 22.9891 -82.4091 180° South  Level Estimated
Sun 07:46:00 PM 22.9891 -82.4091 180° South  Level Estimated
Sun 07:47:00 PM 22.9891 -82.4091 180° South  Level Estimated
Sun 07:48:00 PM 22.9891 -82.4091 180° South  Level Estimated
Sun 07:49:00 PM 22.9891 -82.4091 180° South  Level Estimated
Sun 07:50:00 PM 22.9891 -82.4091 180° South  Level Estimated
Sun 07:51:00 PM 22.9891 -82.4091 180° South  Level Estimated
Sun 07:52:00 PM 22.9891 -82.4091 180° South  Level Estimated
Sun 07:53:00 PM 22.9891 -82.4091 180° South  Level Estimated
Sun 07:54:00 PM 22.9891 -82.4091 180° South  Level Estimated
Sun 07:55:00 PM 22.9891 -82.4091 180° South  Level Estimated
Sun 07:56:00 PM 22.9891 -82.4091 180° South  Level Estimated
Sun 07:57:00 PM 22.9891 -82.4091 180° South  Level Estimated
Sun 07:58:00 PM 22.9891 -82.4091 180° South  Level Estimated
Sun 07:59:00 PM 22.9891 -82.4091 180° South  Level Estimated
Sun 08:00:00 PM 22.9891 -82.4091 180° South  Level Estimated
Sun 08:01:00 PM 22.9891 -82.4091 180° South  Level Estimated
Sun 08:02:00 PM 22.9891 -82.4091 180° South  Level Estimated
Sun 08:03:00 PM 22.9891 -82.4091 180° South  Level Estimated
Sun 08:04:00 PM 22.9891 -82.4091 180° South  Level Estimated

Login

Don't have an account? Register now (free) for customized features, flight alerts, and more!